EZY862 EGPF-EGKK
Flight info
| Callsign | EZY862 |
|---|---|
| Flight time | N/A |
| Altitude | 25000 |
| Route | NORBO T256 DCS/N0422F330 DCT ADZOP DCT EGTOC DCT KEPAD L151 DISIT |
| Aircraft | A20N/M-SDE2E3FGHIRWXY/LB1 |
Departure
| Time | 2026-05-01 14:28 |
|---|---|
| Airport | Glasgow Airport (EGPF) |
Arrival
| Time | N/A |
|---|---|
| Airport | London Gatwick Airport (EGKK) |
| Time | Latitude | Longitude | Altitude | Speed | Heading |
|---|---|---|---|---|---|
| 2026-05-01 14:05 | 55.86654 | -4.43143 | 33 ft | 0 kts | 74° |
| 2026-05-01 14:19 | 55.86653 | -4.43148 | 32 ft | 2 kts | 73° |
| 2026-05-01 14:19 | 55.86647 | -4.43178 | 30 ft | 3 kts | 54° |
| 2026-05-01 14:20 | 55.86634 | -4.43201 | 31 ft | 3 kts | 13° |
| 2026-05-01 14:20 | 55.86621 | -4.43202 | 32 ft | 1 kts | 344° |
| 2026-05-01 14:22 | 55.86622 | -4.43203 | 32 ft | 1 kts | 344° |
| 2026-05-01 14:22 | 55.86642 | -4.43213 | 31 ft | 5 kts | 344° |
| 2026-05-01 14:23 | 55.86687 | -4.43236 | 32 ft | 9 kts | 344° |
| 2026-05-01 14:23 | 55.86754 | -4.43271 | 32 ft | 12 kts | 343° |
| 2026-05-01 14:23 | 55.86787 | -4.43355 | 32 ft | 9 kts | 263° |
| 2026-05-01 14:23 | 55.86772 | -4.43456 | 32 ft | 12 kts | 251° |
| 2026-05-01 14:24 | 55.86756 | -4.43547 | 32 ft | 13 kts | 255° |
| 2026-05-01 14:24 | 55.86729 | -4.43721 | 32 ft | 16 kts | 255° |
| 2026-05-01 14:24 | 55.86662 | -4.43870 | 32 ft | 16 kts | 225° |
| 2026-05-01 14:25 | 55.86579 | -4.44028 | 32 ft | 18 kts | 224° |
| 2026-05-01 14:25 | 55.86489 | -4.44206 | 32 ft | 20 kts | 228° |
| 2026-05-01 14:25 | 55.86386 | -4.44394 | 32 ft | 22 kts | 225° |
| 2026-05-01 14:25 | 55.86282 | -4.44591 | 32 ft | 16 kts | 225° |
| 2026-05-01 14:26 | 55.86245 | -4.44675 | 32 ft | 3 kts | 255° |
| 2026-05-01 14:26 | 55.86270 | -4.44746 | 32 ft | 7 kts | 304° |
| 2026-05-01 14:26 | 55.86313 | -4.44828 | 33 ft | 11 kts | 315° |
| 2026-05-01 14:27 | 55.86374 | -4.44855 | 33 ft | 10 kts | 37° |
| 2026-05-01 14:27 | 55.86393 | -4.44818 | 33 ft | 12 kts | 47° |
| 2026-05-01 14:27 | 55.86628 | -4.44377 | 39 ft | 85 kts | 46° |
| 2026-05-01 14:28 | 55.87912 | -4.41976 | 476 ft | 151 kts | 44° |
| 2026-05-01 14:28 | 55.88685 | -4.40686 | 1079 ft | 155 kts | 43° |
| 2026-05-01 14:28 | 55.89474 | -4.39357 | 1653 ft | 160 kts | 47° |
| 2026-05-01 14:28 | 55.90281 | -4.37878 | 2126 ft | 176 kts | 49° |
| 2026-05-01 14:29 | 55.91145 | -4.36182 | 2547 ft | 195 kts | 50° |
| 2026-05-01 14:29 | 55.92081 | -4.34277 | 3003 ft | 216 kts | 51° |
| 2026-05-01 14:30 | 55.96631 | -4.31279 | 4731 ft | 277 kts | 337° |
| 2026-05-01 14:30 | 55.98284 | -4.33080 | 5238 ft | 280 kts | 312° |
| 2026-05-01 14:30 | 55.99313 | -4.35901 | 5352 ft | 268 kts | 284° |
| 2026-05-01 14:31 | 55.98774 | -4.42113 | 5598 ft | 259 kts | 233° |
| 2026-05-01 14:31 | 55.97707 | -4.44636 | 5713 ft | 258 kts | 230° |
| 2026-05-01 14:31 | 55.96638 | -4.47236 | 5816 ft | 258 kts | 233° |
| 2026-05-01 14:31 | 55.95627 | -4.49875 | 5925 ft | 258 kts | 230° |
| 2026-05-01 14:32 | 55.94450 | -4.52324 | 5997 ft | 259 kts | 223° |
| 2026-05-01 14:32 | 55.93163 | -4.54559 | 6001 ft | 256 kts | 223° |
| 2026-05-01 14:32 | 55.91900 | -4.56820 | 5998 ft | 257 kts | 223° |
| 2026-05-01 14:32 | 55.90655 | -4.59082 | 5994 ft | 260 kts | 223° |
| 2026-05-01 14:33 | 55.89403 | -4.61359 | 6002 ft | 255 kts | 223° |
| 2026-05-01 14:33 | 55.88150 | -4.63635 | 5992 ft | 257 kts | 223° |
| 2026-05-01 14:33 | 55.86893 | -4.65907 | 6002 ft | 257 kts | 223° |
| 2026-05-01 14:33 | 55.85583 | -4.68072 | 5992 ft | 256 kts | 216° |
| 2026-05-01 14:34 | 55.84116 | -4.69878 | 5963 ft | 256 kts | 211° |
| 2026-05-01 14:34 | 55.82605 | -4.71578 | 5951 ft | 257 kts | 211° |
| 2026-05-01 14:34 | 55.81104 | -4.73233 | 5961 ft | 257 kts | 210° |
| 2026-05-01 14:34 | 55.79546 | -4.74721 | 5960 ft | 253 kts | 199° |
| 2026-05-01 14:35 | 55.77827 | -4.75375 | 5967 ft | 257 kts | 184° |
| 2026-05-01 14:35 | 55.76063 | -4.75375 | 5957 ft | 256 kts | 180° |
| 2026-05-01 14:35 | 55.74286 | -4.75379 | 5961 ft | 255 kts | 181° |
| 2026-05-01 14:35 | 55.72509 | -4.75447 | 5961 ft | 256 kts | 182° |
| 2026-05-01 14:36 | 55.70729 | -4.75545 | 5966 ft | 255 kts | 182° |
| 2026-05-01 14:36 | 55.68949 | -4.75652 | 5957 ft | 255 kts | 182° |
| 2026-05-01 14:36 | 55.67178 | -4.75758 | 5966 ft | 254 kts | 182° |
| 2026-05-01 14:36 | 55.65411 | -4.75862 | 5958 ft | 254 kts | 182° |
| 2026-05-01 14:37 | 55.63674 | -4.75963 | 5960 ft | 255 kts | 182° |
| 2026-05-01 14:37 | 55.61947 | -4.76063 | 5970 ft | 254 kts | 182° |
| 2026-05-01 14:37 | 55.60205 | -4.75924 | 5970 ft | 257 kts | 168° |
| 2026-05-01 14:37 | 55.58573 | -4.74698 | 6299 ft | 263 kts | 148° |
| 2026-05-01 14:38 | 55.57151 | -4.72659 | 7189 ft | 264 kts | 143° |
| 2026-05-01 14:38 | 55.55730 | -4.70606 | 8222 ft | 265 kts | 144° |
| 2026-05-01 14:38 | 55.54278 | -4.68537 | 9199 ft | 270 kts | 145° |
| 2026-05-01 14:38 | 55.52806 | -4.66442 | 10138 ft | 274 kts | 145° |
| 2026-05-01 14:39 | 55.51291 | -4.64288 | 10747 ft | 290 kts | 145° |
| 2026-05-01 14:39 | 55.49653 | -4.61966 | 11081 ft | 313 kts | 145° |
| 2026-05-01 14:39 | 55.47934 | -4.59519 | 11609 ft | 326 kts | 144° |
| 2026-05-01 14:39 | 55.46165 | -4.56989 | 12466 ft | 329 kts | 144° |
| 2026-05-01 14:40 | 55.44375 | -4.54431 | 13324 ft | 332 kts | 145° |
| 2026-05-01 14:40 | 55.42570 | -4.51857 | 14148 ft | 336 kts | 144° |
| 2026-05-01 14:40 | 55.40740 | -4.49255 | 14882 ft | 339 kts | 144° |
| 2026-05-01 14:40 | 55.38888 | -4.46628 | 15608 ft | 343 kts | 144° |
| 2026-05-01 14:41 | 55.37015 | -4.43976 | 16329 ft | 347 kts | 144° |
| 2026-05-01 14:41 | 55.35129 | -4.41308 | 17020 ft | 351 kts | 144° |
| 2026-05-01 14:41 | 55.33238 | -4.38637 | 17724 ft | 354 kts | 144° |
| 2026-05-01 14:41 | 55.31302 | -4.35906 | 18423 ft | 358 kts | 144° |
| 2026-05-01 14:42 | 55.29346 | -4.33150 | 19049 ft | 361 kts | 144° |
| 2026-05-01 14:42 | 55.27386 | -4.30390 | 19692 ft | 363 kts | 144° |
| 2026-05-01 14:42 | 55.25421 | -4.27627 | 20314 ft | 366 kts | 144° |
| 2026-05-01 14:42 | 55.23417 | -4.24814 | 20938 ft | 369 kts | 144° |
| 2026-05-01 14:43 | 55.21428 | -4.22026 | 21557 ft | 372 kts | 144° |
| 2026-05-01 14:43 | 55.19402 | -4.19188 | 22169 ft | 374 kts | 144° |
| 2026-05-01 14:43 | 55.17402 | -4.16223 | 22769 ft | 379 kts | 140° |
| 2026-05-01 14:43 | 55.15552 | -4.12880 | 23356 ft | 384 kts | 137° |
| 2026-05-01 14:44 | 55.14336 | -4.10626 | 23727 ft | 386 kts | 137° |
| 2026-05-01 14:44 | 55.10002 | -4.02619 | 24775 ft | 394 kts | 137° |
| 2026-05-01 14:44 | 55.08120 | -3.99153 | 24874 ft | 394 kts | 137° |
| 2026-05-01 14:45 | 55.06857 | -3.96830 | 24943 ft | 394 kts | 137° |
| 2026-05-01 14:45 | 55.03115 | -3.89969 | 25126 ft | 395 kts | 137° |
| 2026-05-01 14:45 | 55.01218 | -3.86500 | 25132 ft | 395 kts | 137° |
| 2026-05-01 14:46 | 54.99316 | -3.83026 | 25134 ft | 395 kts | 137° |
| 2026-05-01 14:46 | 54.95475 | -3.76036 | 25133 ft | 401 kts | 137° |
| 2026-05-01 14:46 | 54.93574 | -3.72579 | 25134 ft | 400 kts | 137° |
| 2026-05-01 14:47 | 54.91650 | -3.69086 | 25126 ft | 400 kts | 137° |
| 2026-05-01 14:47 | 54.89723 | -3.65595 | 25131 ft | 400 kts | 137° |
| 2026-05-01 14:47 | 54.87791 | -3.62102 | 25135 ft | 400 kts | 137° |
| 2026-05-01 14:48 | 54.84036 | -3.55323 | 25136 ft | 400 kts | 137° |
| 2026-05-01 14:48 | 54.82107 | -3.51848 | 25132 ft | 400 kts | 137° |
| 2026-05-01 14:48 | 54.78240 | -3.44899 | 25137 ft | 400 kts | 137° |
| 2026-05-01 14:49 | 54.74361 | -3.38068 | 25130 ft | 398 kts | 143° |
| 2026-05-01 14:49 | 54.69517 | -3.33794 | 25129 ft | 391 kts | 169° |
| 2026-05-01 14:50 | 54.65034 | -3.32911 | 25137 ft | 390 kts | 176° |
| 2026-05-01 14:50 | 54.58766 | -3.31936 | 25136 ft | 389 kts | 175° |
| 2026-05-01 14:51 | 54.56063 | -3.31510 | 25135 ft | 389 kts | 175° |
| 2026-05-01 14:51 | 54.50665 | -3.30657 | 25132 ft | 390 kts | 176° |
| 2026-05-01 14:52 | 54.45271 | -3.29807 | 25127 ft | 389 kts | 175° |
| 2026-05-01 14:52 | 54.42627 | -3.29392 | 25134 ft | 388 kts | 175° |
| 2026-05-01 14:52 | 54.37270 | -3.28551 | 25134 ft | 389 kts | 175° |
| 2026-05-01 14:53 | 54.34612 | -3.28134 | 25137 ft | 388 kts | 175° |
| 2026-05-01 14:53 | 54.31914 | -3.27711 | 25132 ft | 388 kts | 175° |
| 2026-05-01 14:53 | 54.29223 | -3.27291 | 25135 ft | 388 kts | 175° |
| 2026-05-01 14:53 | 54.26530 | -3.26871 | 25141 ft | 389 kts | 175° |
| 2026-05-01 14:54 | 54.23836 | -3.26451 | 25133 ft | 388 kts | 175° |
| 2026-05-01 14:54 | 54.21132 | -3.26031 | 25140 ft | 388 kts | 175° |
| 2026-05-01 14:54 | 54.18447 | -3.25614 | 25141 ft | 388 kts | 175° |
| 2026-05-01 14:54 | 54.15757 | -3.25193 | 25138 ft | 388 kts | 175° |
| 2026-05-01 14:55 | 54.13070 | -3.24770 | 25150 ft | 388 kts | 175° |
| 2026-05-01 14:55 | 54.10377 | -3.24344 | 25149 ft | 388 kts | 175° |
| 2026-05-01 14:55 | 54.07741 | -3.23929 | 25150 ft | 388 kts | 175° |
| 2026-05-01 14:55 | 54.05048 | -3.23505 | 25148 ft | 388 kts | 175° |
| 2026-05-01 14:56 | 54.02361 | -3.23064 | 25143 ft | 388 kts | 174° |
| 2026-05-01 14:56 | 53.99699 | -3.22244 | 25147 ft | 389 kts | 167° |
| 2026-05-01 14:56 | 53.97199 | -3.20962 | 25144 ft | 390 kts | 162° |
| 2026-05-01 14:56 | 53.94660 | -3.19295 | 25148 ft | 390 kts | 161° |
| 2026-05-01 14:57 | 53.92130 | -3.17636 | 25148 ft | 389 kts | 161° |
| 2026-05-01 14:57 | 53.87118 | -3.14390 | 25158 ft | 389 kts | 161° |
| 2026-05-01 14:57 | 53.84579 | -3.12754 | 25158 ft | 391 kts | 161° |
| 2026-05-01 14:58 | 53.82045 | -3.11127 | 25160 ft | 391 kts | 161° |
| 2026-05-01 14:58 | 53.79495 | -3.09493 | 25157 ft | 391 kts | 161° |
| 2026-05-01 14:58 | 53.76959 | -3.07870 | 25159 ft | 390 kts | 161° |
| 2026-05-01 14:58 | 53.74415 | -3.06243 | 25157 ft | 391 kts | 161° |
| 2026-05-01 14:59 | 53.71876 | -3.04622 | 25155 ft | 391 kts | 161° |
| 2026-05-01 14:59 | 53.69330 | -3.02999 | 25153 ft | 390 kts | 161° |
| 2026-05-01 14:59 | 53.66802 | -3.01386 | 25155 ft | 388 kts | 161° |
| 2026-05-01 14:59 | 53.64271 | -2.99775 | 25157 ft | 389 kts | 161° |
| 2026-05-01 15:00 | 53.59246 | -2.96583 | 25156 ft | 389 kts | 161° |
| 2026-05-01 15:00 | 53.56708 | -2.94974 | 25156 ft | 389 kts | 161° |
| 2026-05-01 15:00 | 53.54165 | -2.93363 | 25156 ft | 389 kts | 161° |
| 2026-05-01 15:01 | 53.51632 | -2.91762 | 25158 ft | 389 kts | 161° |
| 2026-05-01 15:01 | 53.49092 | -2.90159 | 25156 ft | 389 kts | 161° |
| 2026-05-01 15:01 | 53.46553 | -2.88557 | 25152 ft | 389 kts | 161° |
| 2026-05-01 15:01 | 53.44049 | -2.86980 | 25152 ft | 389 kts | 161° |
| 2026-05-01 15:02 | 53.41515 | -2.85386 | 25156 ft | 389 kts | 161° |
| 2026-05-01 15:02 | 53.39802 | -2.84310 | 25157 ft | 389 kts | 161° |
| 2026-05-01 15:02 | 53.36439 | -2.82199 | 25156 ft | 389 kts | 161° |
| 2026-05-01 15:02 | 53.33904 | -2.80610 | 25141 ft | 389 kts | 161° |
| 2026-05-01 15:03 | 53.31363 | -2.79020 | 25137 ft | 389 kts | 161° |
| 2026-05-01 15:03 | 53.28829 | -2.77436 | 25138 ft | 389 kts | 161° |
| 2026-05-01 15:03 | 53.26295 | -2.75854 | 25139 ft | 389 kts | 161° |
| 2026-05-01 15:03 | 53.23772 | -2.74281 | 25139 ft | 389 kts | 161° |
| 2026-05-01 15:04 | 53.21231 | -2.72699 | 25138 ft | 389 kts | 161° |
| 2026-05-01 15:04 | 53.18732 | -2.71145 | 25140 ft | 388 kts | 161° |
| 2026-05-01 15:04 | 53.16224 | -2.69587 | 25140 ft | 388 kts | 161° |
| 2026-05-01 15:04 | 53.13686 | -2.68012 | 25141 ft | 388 kts | 161° |
| 2026-05-01 15:05 | 53.11158 | -2.66446 | 25147 ft | 388 kts | 162° |
| 2026-05-01 15:05 | 53.08671 | -2.64907 | 25146 ft | 388 kts | 162° |
| 2026-05-01 15:05 | 53.06149 | -2.63348 | 25146 ft | 388 kts | 162° |
| 2026-05-01 15:05 | 53.03626 | -2.61790 | 25147 ft | 388 kts | 162° |
| 2026-05-01 15:06 | 53.01090 | -2.60227 | 25147 ft | 388 kts | 162° |
| 2026-05-01 15:06 | 52.98598 | -2.58693 | 25151 ft | 388 kts | 162° |
| 2026-05-01 15:06 | 52.96091 | -2.57151 | 25150 ft | 388 kts | 161° |
| 2026-05-01 15:06 | 52.93596 | -2.55619 | 25152 ft | 388 kts | 161° |
| 2026-05-01 15:07 | 52.91074 | -2.54072 | 25156 ft | 388 kts | 161° |
| 2026-05-01 15:07 | 52.88544 | -2.52522 | 25155 ft | 388 kts | 161° |
| 2026-05-01 15:07 | 52.86061 | -2.51001 | 25153 ft | 389 kts | 162° |
| 2026-05-01 15:07 | 52.83546 | -2.49464 | 25156 ft | 389 kts | 162° |
| 2026-05-01 15:08 | 52.81084 | -2.47719 | 25155 ft | 390 kts | 155° |
| 2026-05-01 15:08 | 52.78735 | -2.45476 | 25154 ft | 393 kts | 149° |
| 2026-05-01 15:08 | 52.76490 | -2.42974 | 25154 ft | 393 kts | 149° |
| 2026-05-01 15:08 | 52.74225 | -2.40451 | 25152 ft | 393 kts | 149° |
| 2026-05-01 15:09 | 52.71981 | -2.37965 | 25140 ft | 393 kts | 149° |
| 2026-05-01 15:09 | 52.69708 | -2.35456 | 25143 ft | 393 kts | 149° |
| 2026-05-01 15:09 | 52.67426 | -2.32945 | 25140 ft | 393 kts | 149° |
| 2026-05-01 15:09 | 52.65142 | -2.30435 | 25142 ft | 393 kts | 149° |
| 2026-05-01 15:10 | 52.62864 | -2.27936 | 25138 ft | 392 kts | 149° |
| 2026-05-01 15:10 | 52.58338 | -2.22982 | 25139 ft | 393 kts | 149° |
| 2026-05-01 15:10 | 52.56055 | -2.20486 | 25141 ft | 392 kts | 149° |
| 2026-05-01 15:11 | 52.53775 | -2.17997 | 25135 ft | 393 kts | 149° |
| 2026-05-01 15:11 | 52.49210 | -2.13025 | 25132 ft | 392 kts | 149° |
| 2026-05-01 15:11 | 52.46963 | -2.10582 | 25134 ft | 392 kts | 149° |
| 2026-05-01 15:12 | 52.44682 | -2.08105 | 25136 ft | 393 kts | 149° |
| 2026-05-01 15:12 | 52.44557 | -2.07969 | 25135 ft | 393 kts | 149° |